Time;durP1;ratioP1;P1;durP2;ratioP2;P2;SDS_P1;SDS_P2;PMS_P1;PMS_P2;Temp;Humidity;BMP_temperature;BMP_pressure;BME280_temperature;BME280_humidity;BME280_pressure;Samples;Min_cycle;Max_cycle;Signal;HPM_P1;HPM_P2
2022/08/22 00:01:12;;;;;;;;;;;16.70;99.90;;;;;;4191879;28;19924;-57
2022/08/22 00:03:22;;;;;;;;;;;16.70;99.90;;;;;;4197074;28;20495;-57
2022/08/22 00:05:27;;;;;;;;;;;16.80;99.90;;;;;;4215071;28;19924;-57
2022/08/22 00:07:29;;;;;;;;;;;16.80;99.90;;;;;;4215131;28;20026;-56
2022/08/22 00:09:38;;;;;;;;;;;16.80;99.90;;;;;;4214754;28;20478;-58
2022/08/22 00:11:40;;;;;;;;;;;16.80;99.90;;;;;;4215305;28;20365;-56
2022/08/22 00:13:42;;;;;;;;;;;16.80;99.90;;;;;;4214785;28;20388;-58
2022/08/22 00:16:07;;;;;;;;;;;16.80;99.90;;;;;;4214980;28;20022;-57
2022/08/22 00:18:16;;;;;;;;;;;16.70;99.90;;;;;;4215186;28;19942;-57
2022/08/22 00:20:22;;;;;;;;;;;16.60;99.90;;;;;;4214935;28;20022;-57
2022/08/22 00:22:34;;;;;;;;;;;16.60;99.90;;;;;;4215282;28;19924;-56
2022/08/22 00:24:39;;;;;;;;;;;16.60;99.90;;;;;;4215148;28;19931;-57
2022/08/22 00:26:52;;;;;;;;;;;16.60;99.90;;;;;;4215195;28;19924;-57
2022/08/22 00:29:03;;;;;;;;;;;16.60;99.90;;;;;;4214309;28;20023;-56
2022/08/22 00:31:12;;;;;;;;;;;16.70;99.90;;;;;;4214876;28;19924;-57
2022/08/22 00:33:21;;;;;;;;;;;16.60;99.90;;;;;;4197853;28;19924;-57
2022/08/22 00:35:41;;;;;;;;;;;16.70;99.90;;;;;;4207164;28;19927;-57
2022/08/22 00:38:03;;;;;;;;;;;16.60;99.90;;;;;;4214407;28;19924;-56
2022/08/22 00:40:29;;;;;;;;;;;16.50;99.90;;;;;;4214840;28;19950;-57
2022/08/22 00:42:54;;;;;;;;;;;16.50;99.90;;;;;;4214205;28;19982;-57
2022/08/22 00:45:15;;;;;;;;;;;16.50;99.90;;;;;;4206479;28;19935;-57
2022/08/22 00:47:17;;;;;;;;;;;16.40;99.90;;;;;;4213831;28;19936;-57
2022/08/22 00:49:27;;;;;;;;;;;16.40;99.90;;;;;;4214802;28;19924;-57
2022/08/22 00:51:33;;;;;;;;;;;16.30;99.90;;;;;;4214502;28;19993;-56
2022/08/22 00:53:53;;;;;;;;;;;16.10;99.90;;;;;;4214027;28;20376;-57
2022/08/22 00:56:14;;;;;;;;;;;16.10;99.90;;;;;;4214684;28;19932;-58
2022/08/22 00:58:18;;;;;;;;;;;16.20;99.90;;;;;;4214161;28;20016;-57
2022/08/22 01:00:22;;;;;;;;;;;16.20;99.90;;;;;;4214175;28;19946;-57
2022/08/22 01:02:39;;;;;;;;;;;16.20;99.90;;;;;;4214587;28;19932;-57
2022/08/22 01:04:41;;;;;;;;;;;16.20;99.90;;;;;;4214179;28;19924;-57
2022/08/22 01:07:06;;;;;;;;;;;16.20;99.90;;;;;;4214162;28;20308;-57
2022/08/22 01:09:16;;;;;;;;;;;16.20;99.90;;;;;;4205869;28;19975;-56
2022/08/22 01:11:24;;;;;;;;;;;16.20;99.90;;;;;;4214528;28;19925;-56
2022/08/22 01:13:32;;;;;;;;;;;16.20;99.90;;;;;;4214097;28;19957;-57
2022/08/22 01:15:35;;;;;;;;;;;16.20;99.90;;;;;;4213876;28;19928;-57
2022/08/22 01:17:50;;;;;;;;;;;16.20;99.90;;;;;;4196055;28;19925;-57
2022/08/22 01:20:11;;;;;;;;;;;16.30;99.90;;;;;;4214040;28;19928;-57
2022/08/22 01:22:35;;;;;;;;;;;16.30;99.90;;;;;;4214099;28;19931;-57
2022/08/22 01:27:23;;;;;;;;;;;16.10;99.90;;;;;;4213732;28;19985;-57
2022/08/22 01:29:37;;;;;;;;;;;16.10;99.90;;;;;;4213372;28;19924;-57
2022/08/22 01:32:12;;;;;;;;;;;16.00;99.90;;;;;;4213665;28;19928;-56
2022/08/22 01:34:32;;;;;;;;;;;16.00;99.90;;;;;;4163033;28;19963;-56
2022/08/22 01:36:51;;;;;;;;;;;16.10;99.90;;;;;;4210733;28;19924;-57
2022/08/22 01:39:01;;;;;;;;;;;16.20;99.90;;;;;;4213651;28;19959;-57
2022/08/22 01:41:11;;;;;;;;;;;16.00;99.90;;;;;;4196975;28;20141;-56
2022/08/22 01:43:13;;;;;;;;;;;15.90;99.90;;;;;;4212562;28;20307;-56
2022/08/22 01:45:34;;;;;;;;;;;16.00;99.90;;;;;;4213571;28;19924;-56
2022/08/22 01:47:40;;;;;;;;;;;15.90;99.90;;;;;;4212232;28;19924;-56
2022/08/22 01:49:49;;;;;;;;;;;15.90;99.90;;;;;;4196709;28;19931;-57
2022/08/22 01:52:03;;;;;;;;;;;16.00;99.90;;;;;;4205004;28;20418;-56
2022/08/22 01:54:04;;;;;;;;;;;16.00;99.90;;;;;;4213301;28;19924;-57
2022/08/22 01:56:15;;;;;;;;;;;15.90;99.90;;;;;;4213696;28;20022;-56
2022/08/22 01:58:22;;;;;;;;;;;15.90;99.90;;;;;;4213129;28;19967;-58
2022/08/22 02:00:25;;;;;;;;;;;15.90;99.90;;;;;;4195235;28;20050;-57
2022/08/22 02:02:51;;;;;;;;;;;15.80;99.90;;;;;;4196886;28;19944;-56
2022/08/22 02:05:01;;;;;;;;;;;15.80;99.90;;;;;;4207062;28;20394;-56
2022/08/22 02:07:03;;;;;;;;;;;15.90;99.90;;;;;;4213067;28;20579;-57
2022/08/22 02:09:09;;;;;;;;;;;15.80;99.90;;;;;;4213101;28;20304;-56
2022/08/22 02:11:30;;;;;;;;;;;15.90;99.90;;;;;;4212727;28;20406;-56
2022/08/22 02:13:35;;;;;;;;;;;15.80;99.90;;;;;;4213085;28;19924;-56
2022/08/22 02:15:37;;;;;;;;;;;15.70;99.90;;;;;;4213171;28;19935;-56
2022/08/22 02:17:51;;;;;;;;;;;15.70;99.90;;;;;;4213038;28;19928;-56
2022/08/22 02:20:00;;;;;;;;;;;15.70;99.90;;;;;;4212787;28;19928;-57
2022/08/22 02:22:06;;;;;;;;;;;15.70;99.90;;;;;;4213047;28;20331;-56
2022/08/22 02:24:22;;;;;;;;;;;15.70;99.90;;;;;;4212870;28;19924;-56
2022/08/22 02:26:43;;;;;;;;;;;15.60;99.90;;;;;;4212976;28;19935;-56
2022/08/22 02:28:51;;;;;;;;;;;15.60;99.90;;;;;;4212706;28;20477;-57
2022/08/22 02:31:04;;;;;;;;;;;15.50;99.90;;;;;;4212511;28;20010;-56
2022/08/22 02:33:09;;;;;;;;;;;15.50;99.90;;;;;;4212595;28;20285;-57
2022/08/22 02:35:17;;;;;;;;;;;15.40;99.90;;;;;;4212827;28;19974;-56
2022/08/22 02:37:31;;;;;;;;;;;15.40;99.90;;;;;;4211294;28;20760;-56
2022/08/22 02:39:55;;;;;;;;;;;15.40;99.90;;;;;;4212651;28;20438;-57
2022/08/22 02:42:21;;;;;;;;;;;15.30;99.90;;;;;;4212605;28;19942;-57
2022/08/22 02:44:32;;;;;;;;;;;15.30;99.90;;;;;;4212720;28;20461;-57
2022/08/22 02:46:37;;;;;;;;;;;15.30;99.90;;;;;;4212014;28;19934;-57
2022/08/22 02:48:45;;;;;;;;;;;15.30;99.90;;;;;;4212292;28;19967;-57
2022/08/22 02:50:53;;;;;;;;;;;15.30;99.90;;;;;;4212512;28;20400;-56
2022/08/22 02:53:04;;;;;;;;;;;15.30;99.90;;;;;;4218300;28;19928;-56
2022/08/22 02:55:18;;;;;;;;;;;15.20;99.90;;;;;;4212442;28;20349;-57
2022/08/22 02:57:20;;;;;;;;;;;15.20;99.90;;;;;;4212589;28;19924;-56
2022/08/22 02:59:30;;;;;;;;;;;15.20;99.90;;;;;;4211564;28;19932;-56
2022/08/22 03:01:36;;;;;;;;;;;15.20;99.90;;;;;;4212389;28;20022;-55
2022/08/22 03:03:40;;;;;;;;;;;15.10;99.90;;;;;;4212434;28;19928;-56
2022/08/22 03:05:42;;;;;;;;;;;15.20;99.90;;;;;;4212575;28;19928;-56
2022/08/22 03:07:49;;;;;;;;;;;15.10;99.90;;;;;;4212103;28;19935;-56
2022/08/22 03:09:54;;;;;;;;;;;15.10;99.90;;;;;;4212575;28;20027;-57
2022/08/22 03:12:19;;;;;;;;;;;15.20;99.90;;;;;;4212363;28;20391;-56
2022/08/22 03:14:26;;;;;;;;;;;15.10;99.90;;;;;;4194316;28;19936;-56
2022/08/22 03:16:42;;;;;;;;;;;15.10;99.90;;;;;;4212494;28;19928;-57
2022/08/22 03:18:51;;;;;;;;;;;15.10;99.90;;;;;;4212236;28;20354;-56
2022/08/22 03:21:15;;;;;;;;;;;15.20;99.90;;;;;;4212221;28;19928;-56
2022/08/22 03:23:32;;;;;;;;;;;15.10;99.90;;;;;;4212322;28;19928;-56
2022/08/22 03:25:40;;;;;;;;;;;15.10;99.90;;;;;;4195476;28;19928;-56
2022/08/22 03:27:44;;;;;;;;;;;15.10;99.90;;;;;;4205154;28;20497;-57
2022/08/22 03:29:59;;;;;;;;;;;15.10;99.90;;;;;;4212342;28;19928;-56
2022/08/22 03:32:06;;;;;;;;;;;15.10;99.90;;;;;;4212169;28;19936;-56
2022/08/22 03:34:22;;;;;;;;;;;15.20;99.90;;;;;;4211727;28;20322;-57
2022/08/22 03:36:27;;;;;;;;;;;15.00;99.90;;;;;;4212056;28;19928;-57
2022/08/22 03:38:31;;;;;;;;;;;14.90;99.90;;;;;;4212229;28;19946;-57
2022/08/22 03:40:44;;;;;;;;;;;15.00;99.90;;;;;;4211930;28;19954;-57
2022/08/22 03:43:01;;;;;;;;;;;15.00;99.90;;;;;;4211748;28;19935;-56
2022/08/22 03:45:12;;;;;;;;;;;15.00;99.90;;;;;;4212006;28;20327;-56
2022/08/22 03:47:20;;;;;;;;;;;15.00;99.90;;;;;;4211318;28;20451;-56
2022/08/22 03:49:28;;;;;;;;;;;15.00;99.90;;;;;;4211854;28;20284;-57
2022/08/22 03:51:59;;;;;;;;;;;15.10;99.90;;;;;;4212032;28;19928;-56
2022/08/22 03:54:01;;;;;;;;;;;15.10;99.90;;;;;;4160140;28;19925;-56
2022/08/22 03:56:09;;;;;;;;;;;15.10;99.90;;;;;;4218169;28;19930;-56
2022/08/22 03:58:21;;;;;;;;;;;15.10;99.90;;;;;;4212109;28;19924;-57
2022/08/22 04:00:45;;;;;;;;;;;15.00;99.90;;;;;;4195439;28;19935;-56
2022/08/22 04:02:59;;;;;;;;;;;15.00;99.90;;;;;;4205217;28;20307;-56
2022/08/22 04:05:04;;;;;;;;;;;15.00;99.90;;;;;;4211856;28;20450;-57
2022/08/22 04:07:07;;;;;;;;;;;15.00;99.90;;;;;;4211900;28;20404;-56
2022/08/22 04:09:47;;;;;;;;;;;14.90;99.90;;;;;;4211784;28;19931;-57
2022/08/22 04:11:49;;;;;;;;;;;14.90;99.90;;;;;;4213570;28;20400;-56
2022/08/22 04:13:57;;;;;;;;;;;14.80;99.90;;;;;;4215310;28;19928;-56
2022/08/22 04:16:05;;;;;;;;;;;14.70;99.90;;;;;;4214950;28;19970;-57
2022/08/22 04:18:26;;;;;;;;;;;14.70;99.90;;;;;;4215125;28;19928;-57
2022/08/22 04:20:47;;;;;;;;;;;14.50;99.90;;;;;;4197486;28;19928;-56
2022/08/22 04:23:04;;;;;;;;;;;14.60;99.90;;;;;;4209746;28;19994;-57
2022/08/22 04:25:29;;;;;;;;;;;14.70;99.90;;;;;;4207724;28;20023;-56
2022/08/22 04:27:36;;;;;;;;;;;14.50;99.90;;;;;;4214618;28;19928;-57
2022/08/22 04:29:49;;;;;;;;;;;14.50;99.90;;;;;;4214419;28;19977;-56
2022/08/22 04:32:05;;;;;;;;;;;14.50;99.90;;;;;;4214312;28;19943;-56
2022/08/22 04:34:14;;;;;;;;;;;14.50;99.90;;;;;;4196489;28;19978;-57
2022/08/22 04:36:21;;;;;;;;;;;14.40;99.90;;;;;;4215007;28;20392;-57
2022/08/22 04:38:30;;;;;;;;;;;14.40;99.90;;;;;;4214561;28;20433;-56
2022/08/22 04:40:36;;;;;;;;;;;14.40;99.90;;;;;;4213949;28;19932;-56
2022/08/22 04:42:48;;;;;;;;;;;14.50;99.90;;;;;;4214035;28;20239;-57
2022/08/22 04:44:55;;;;;;;;;;;14.60;99.90;;;;;;4214688;28;20355;-56
2022/08/22 04:47:21;;;;;;;;;;;14.50;99.90;;;;;;4213967;28;19934;-56
2022/08/22 04:49:43;;;;;;;;;;;14.50;99.90;;;;;;4214456;28;19931;-56
2022/08/22 04:51:45;;;;;;;;;;;14.50;99.90;;;;;;4197576;28;20311;-56
2022/08/22 04:53:54;;;;;;;;;;;14.40;99.90;;;;;;4206984;28;19932;-57
2022/08/22 04:56:15;;;;;;;;;;;14.30;99.90;;;;;;4214424;28;19962;-56
2022/08/22 04:58:35;;;;;;;;;;;14.40;99.90;;;;;;4214089;28;19928;-57
2022/08/22 05:00:55;;;;;;;;;;;14.40;99.90;;;;;;4213916;28;19930;-56
2022/08/22 05:03:00;;;;;;;;;;;14.30;99.90;;;;;;4214100;28;19928;-56
2022/08/22 05:05:09;;;;;;;;;;;14.40;99.90;;;;;;4214048;28;19928;-57
2022/08/22 05:07:19;;;;;;;;;;;14.30;99.90;;;;;;4196252;28;20015;-56
2022/08/22 05:09:25;;;;;;;;;;;14.30;99.90;;;;;;4214064;28;19928;-56
2022/08/22 05:11:29;;;;;;;;;;;14.30;99.90;;;;;;4214184;28;19924;-57
2022/08/22 05:13:33;;;;;;;;;;;14.30;99.90;;;;;;4213896;28;20447;-56
2022/08/22 05:15:41;;;;;;;;;;;14.40;99.90;;;;;;4195866;28;19972;-58
2022/08/22 05:17:45;;;;;;;;;;;14.40;99.90;;;;;;4214145;28;19928;-56
2022/08/22 05:19:49;;;;;;;;;;;14.40;99.90;;;;;;4213905;28;19928;-58
2022/08/22 05:21:51;;;;;;;;;;;14.40;99.90;;;;;;4213776;28;19932;-56
2022/08/22 05:23:56;;;;;;;;;;;14.40;99.90;;;;;;4213233;28;20319;-58
2022/08/22 05:25:59;;;;;;;;;;;14.50;99.90;;;;;;4213633;28;19966;-59
2022/08/22 05:28:10;;;;;;;;;;;14.50;99.90;;;;;;4213692;28;19927;-58
2022/08/22 05:30:15;;;;;;;;;;;14.60;99.90;;;;;;4213899;28;20379;-59
2022/08/22 05:32:24;;;;;;;;;;;14.70;99.90;;;;;;4213665;28;19939;-59
2022/08/22 05:34:29;;;;;;;;;;;14.70;99.90;;;;;;4214018;28;20308;-59
2022/08/22 05:36:34;;;;;;;;;;;14.90;99.90;;;;;;4213543;28;19932;-59
2022/08/22 05:38:40;;;;;;;;;;;15.00;99.90;;;;;;4212756;28;20467;-59
2022/08/22 05:40:42;;;;;;;;;;;15.10;99.90;;;;;;4214599;28;20291;-59
2022/08/22 05:42:44;;;;;;;;;;;15.20;99.90;;;;;;4196205;28;19924;-59
2022/08/22 05:44:47;;;;;;;;;;;15.30;99.90;;;;;;4206108;28;19924;-58
2022/08/22 05:46:59;;;;;;;;;;;15.50;99.90;;;;;;4215425;28;19935;-58
2022/08/22 05:49:02;;;;;;;;;;;15.60;99.90;;;;;;4197130;28;19928;-58
2022/08/22 05:51:13;;;;;;;;;;;15.80;99.90;;;;;;4205449;28;20268;-59
2022/08/22 05:53:45;;;;;;;;;;;15.90;99.90;;;;;;4195266;28;19924;-58
2022/08/22 05:55:47;;;;;;;;;;;16.10;99.90;;;;;;4161568;28;19937;-58
2022/08/22 05:57:52;;;;;;;;;;;16.00;99.90;;;;;;4161221;28;20450;-59
2022/08/22 06:00:03;;;;;;;;;;;16.10;99.90;;;;;;4161419;28;19929;-59
2022/08/22 06:02:21;;;;;;;;;;;16.20;99.90;;;;;;4161736;28;19936;-58
2022/08/22 06:04:58;;;;;;;;;;;16.40;99.90;;;;;;4160923;28;19935;-58
2022/08/22 06:07:19;;;;;;;;;;;16.60;99.90;;;;;;4096780;29;19933;-59
2022/08/22 06:09:33;;;;;;;;;;;16.70;99.90;;;;;;4096659;29;20021;-58
2022/08/22 06:11:36;;;;;;;;;;;16.80;99.90;;;;;;4096847;29;20113;-60
2022/08/22 06:13:40;;;;;;;;;;;17.00;99.90;;;;;;4096530;29;20009;-59
2022/08/22 06:15:52;;;;;;;;;;;17.20;99.90;;;;;;4096878;28;19926;-59
2022/08/22 06:17:56;;;;;;;;;;;17.20;99.90;;;;;;4099908;28;20013;-59
2022/08/22 06:19:58;;;;;;;;;;;17.20;99.90;;;;;;4096560;29;19983;-59
2022/08/22 06:22:01;;;;;;;;;;;17.40;99.90;;;;;;4096466;28;19978;-59
2022/08/22 06:24:06;;;;;;;;;;;17.40;99.90;;;;;;4099705;28;19927;-60
2022/08/22 06:26:10;;;;;;;;;;;17.40;99.90;;;;;;4103035;28;19930;-60
2022/08/22 06:28:24;;;;;;;;;;;17.60;99.90;;;;;;4095854;28;19981;-59
2022/08/22 06:30:27;;;;;;;;;;;17.70;99.90;;;;;;4097232;28;19968;-61
2022/08/22 06:32:31;;;;;;;;;;;18.00;99.90;;;;;;4130077;28;19980;-60
2022/08/22 06:34:55;;;;;;;;;;;18.20;99.90;;;;;;4132681;28;19937;-61
2022/08/22 06:37:00;;;;;;;;;;;18.30;99.90;;;;;;4143943;28;19958;-60
2022/08/22 06:39:20;;;;;;;;;;;18.30;99.90;;;;;;4142535;28;20381;-61
2022/08/22 06:41:24;;;;;;;;;;;18.60;99.90;;;;;;4170467;28;19946;-60
2022/08/22 06:43:30;;;;;;;;;;;18.60;99.90;;;;;;4194101;28;20019;-60
2022/08/22 06:45:33;;;;;;;;;;;18.70;99.90;;;;;;4212235;28;19924;-61
2022/08/22 06:47:36;;;;;;;;;;;18.80;99.90;;;;;;4211788;28;19928;-60
2022/08/22 06:49:39;;;;;;;;;;;19.00;99.90;;;;;;4212405;28;19924;-60
2022/08/22 06:51:41;;;;;;;;;;;19.30;99.90;;;;;;4211742;28;19924;-59
2022/08/22 06:53:49;;;;;;;;;;;19.50;99.90;;;;;;4212493;28;20298;-60
2022/08/22 06:55:53;;;;;;;;;;;19.50;99.90;;;;;;4212519;28;19928;-60
2022/08/22 06:57:57;;;;;;;;;;;19.70;99.90;;;;;;4212104;28;19928;-60
2022/08/22 07:00:01;;;;;;;;;;;20.00;99.90;;;;;;4194594;28;19954;-60
2022/08/22 07:02:08;;;;;;;;;;;20.10;99.90;;;;;;4212066;28;20280;-61
2022/08/22 07:04:10;;;;;;;;;;;20.20;99.90;;;;;;4212265;28;19979;-60
2022/08/22 07:06:17;;;;;;;;;;;20.40;99.90;;;;;;4212426;28;19950;-61
2022/08/22 07:08:20;;;;;;;;;;;20.60;99.90;;;;;;4212140;28;20435;-60
2022/08/22 07:10:23;;;;;;;;;;;20.50;99.90;;;;;;4212185;28;20022;-60
2022/08/22 07:12:28;;;;;;;;;;;20.60;99.90;;;;;;4212041;28;19928;-59
2022/08/22 07:14:45;;;;;;;;;;;20.60;99.90;;;;;;4212001;28;19924;-60
2022/08/22 07:16:54;;;;;;;;;;;20.80;99.90;;;;;;4212144;28;19936;-61
2022/08/22 07:18:57;;;;;;;;;;;21.10;99.90;;;;;;4212487;28;19928;-60
2022/08/22 07:21:03;;;;;;;;;;;21.30;99.90;;;;;;4212013;28;19967;-60
2022/08/22 07:23:07;;;;;;;;;;;21.50;99.90;;;;;;4212153;28;20022;-60
2022/08/22 07:25:13;;;;;;;;;;;21.80;99.90;;;;;;4212118;28;19934;-60
2022/08/22 07:27:24;;;;;;;;;;;21.90;99.90;;;;;;4212199;28;19924;-60
2022/08/22 07:29:29;;;;;;;;;;;22.20;99.90;;;;;;4211941;28;20392;-61
2022/08/22 07:31:34;;;;;;;;;;;22.20;99.90;;;;;;4212071;28;19931;-61
2022/08/22 07:33:38;;;;;;;;;;;22.40;99.90;;;;;;4212037;28;19924;-61
2022/08/22 07:35:45;;;;;;;;;;;22.50;99.90;;;;;;4211688;28;19925;-61
2022/08/22 07:37:57;;;;;;;;;;;22.80;99.90;;;;;;4212445;28;19924;-60
2022/08/22 07:40:05;;;;;;;;;;;22.80;99.90;;;;;;4177279;28;19935;-61
2022/08/22 07:42:12;;;;;;;;;;;23.10;99.90;;;;;;4198675;28;20400;-61
2022/08/22 07:44:20;;;;;;;;;;;23.40;99.90;;;;;;4211778;28;19924;-60
2022/08/22 07:46:25;;;;;;;;;;;23.30;99.90;;;;;;4213588;28;19932;-60
2022/08/22 07:48:32;;;;;;;;;;;23.10;99.90;;;;;;4201625;28;19924;-60
2022/08/22 07:50:38;;;;;;;;;;;23.50;99.90;;;;;;4215495;28;20022;-60
2022/08/22 07:52:41;;;;;;;;;;;23.70;99.90;;;;;;4215393;28;19924;-60
2022/08/22 07:54:54;;;;;;;;;;;24.10;99.90;;;;;;4215202;28;19924;-60
2022/08/22 07:57:01;;;;;;;;;;;24.20;99.90;;;;;;4215592;28;20347;-60
2022/08/22 07:59:05;;;;;;;;;;;24.30;99.90;;;;;;4215162;28;20109;-60
2022/08/22 08:01:15;;;;;;;;;;;24.60;99.90;;;;;;4215113;28;19985;-60
2022/08/22 08:03:20;;;;;;;;;;;24.40;99.90;;;;;;4215526;28;19982;-61
2022/08/22 08:05:23;;;;;;;;;;;24.40;99.90;;;;;;4215127;28;19982;-60
2022/08/22 08:07:26;;;;;;;;;;;24.90;99.90;;;;;;4214830;28;20395;-61
2022/08/22 08:09:31;;;;;;;;;;;25.10;99.90;;;;;;4215403;28;20364;-60
2022/08/22 08:11:34;;;;;;;;;;;25.40;99.90;;;;;;4214650;28;20019;-61
2022/08/22 08:13:48;;;;;;;;;;;25.50;99.90;;;;;;4214703;28;20414;-62
2022/08/22 08:15:50;;;;;;;;;;;25.80;99.90;;;;;;4214788;28;19978;-61
2022/08/22 08:17:56;;;;;;;;;;;25.80;99.90;;;;;;4214880;28;19935;-60
2022/08/22 08:20:01;;;;;;;;;;;25.70;99.90;;;;;;4214700;28;20435;-61
2022/08/22 08:22:04;;;;;;;;;;;25.50;99.90;;;;;;4214886;28;19924;-61
2022/08/22 08:24:07;;;;;;;;;;;25.30;99.90;;;;;;4214697;28;19924;-61
2022/08/22 08:26:16;;;;;;;;;;;25.20;99.90;;;;;;4214989;28;19931;-60
2022/08/22 08:28:33;;;;;;;;;;;25.20;99.90;;;;;;4214690;28;19963;-61
2022/08/22 08:30:46;;;;;;;;;;;25.50;99.90;;;;;;4214447;28;20043;-61
2022/08/22 08:32:52;;;;;;;;;;;26.00;99.90;;;;;;4196187;28;19934;-60
2022/08/22 08:34:55;;;;;;;;;;;25.70;99.90;;;;;;4214828;28;19924;-60
2022/08/22 08:36:59;;;;;;;;;;;26.00;99.90;;;;;;4214457;28;19963;-61
2022/08/22 08:39:12;;;;;;;;;;;26.10;99.90;;;;;;4214675;28;19928;-60
2022/08/22 08:41:29;;;;;;;;;;;26.40;99.90;;;;;;4197854;28;19924;-61
2022/08/22 08:43:49;;;;;;;;;;;26.60;99.90;;;;;;4207853;28;19924;-61
2022/08/22 08:45:54;;;;;;;;;;;26.20;99.90;;;;;;4214585;28;19928;-60
2022/08/22 08:48:17;;;;;;;;;;;26.40;99.90;;;;;;4196207;28;20485;-61
2022/08/22 08:50:35;;;;;;;;;;;26.40;99.90;;;;;;4129902;28;19929;-60
2022/08/22 08:52:48;;;;;;;;;;;26.70;99.60;;;;;;4130061;28;19925;-62
2022/08/22 08:54:54;;;;;;;;;;;27.10;98.40;;;;;;4130145;28;20534;-60
2022/08/22 08:57:19;;;;;;;;;;;27.50;98.70;;;;;;4129292;28;20385;-60
2022/08/22 08:59:35;;;;;;;;;;;27.90;97.10;;;;;;4127024;28;20478;-61
2022/08/22 09:01:55;;;;;;;;;;;27.90;96.80;;;;;;4130049;28;20389;-61
2022/08/22 09:04:10;;;;;;;;;;;28.10;97.80;;;;;;4129990;28;19930;-61
2022/08/22 09:06:34;;;;;;;;;;;28.20;95.90;;;;;;4129672;28;19933;-61
2022/08/22 09:08:36;;;;;;;;;;;28.30;98.50;;;;;;4127241;28;19930;-62
2022/08/22 09:10:56;;;;;;;;;;;28.60;97.20;;;;;;4128485;28;20516;-61
2022/08/22 09:13:05;;;;;;;;;;;28.80;94.40;;;;;;4129359;28;19933;-61
2022/08/22 09:15:18;;;;;;;;;;;28.60;93.80;;;;;;4129235;28;20455;-60
2022/08/22 09:17:31;;;;;;;;;;;28.70;95.10;;;;;;4123439;28;20030;-60
2022/08/22 09:19:33;;;;;;;;;;;28.70;95.60;;;;;;4127155;28;19925;-62
2022/08/22 09:21:53;;;;;;;;;;;29.10;96.30;;;;;;4126333;28;19964;-61
2022/08/22 09:23:55;;;;;;;;;;;29.30;95.50;;;;;;4128924;28;20029;-61
2022/08/22 09:26:00;;;;;;;;;;;29.70;96.00;;;;;;4129622;28;20375;-61
2022/08/22 09:28:05;;;;;;;;;;;30.10;95.70;;;;;;4178194;28;19978;-61
2022/08/22 09:30:09;;;;;;;;;;;29.80;94.60;;;;;;4202882;28;20458;-61
2022/08/22 09:32:20;;;;;;;;;;;29.60;93.90;;;;;;4218555;28;19928;-60
2022/08/22 09:34:29;;;;;;;;;;;29.40;94.90;;;;;;4210972;28;20467;-60
2022/08/22 09:36:31;;;;;;;;;;;29.40;95.30;;;;;;4216922;28;20410;-61
2022/08/22 09:38:34;;;;;;;;;;;29.00;95.40;;;;;;4213426;28;20387;-61
2022/08/22 09:40:35;;;;;;;;;;;29.40;95.80;;;;;;4217665;28;19955;-61
2022/08/22 09:42:44;;;;;;;;;;;29.50;95.30;;;;;;4212442;28;20342;-61
2022/08/22 09:44:47;;;;;;;;;;;29.10;95.30;;;;;;4206066;28;19938;-61
2022/08/22 09:47:08;;;;;;;;;;;29.10;97.10;;;;;;4209868;28;19924;-60
2022/08/22 09:49:13;;;;;;;;;;;29.30;95.90;;;;;;4210640;28;19924;-61
2022/08/22 09:51:27;;;;;;;;;;;29.30;95.50;;;;;;4179541;28;20024;-61
2022/08/22 09:53:33;;;;;;;;;;;29.30;95.90;;;;;;4207265;28;19932;-62
2022/08/22 09:55:46;;;;;;;;;;;29.10;94.90;;;;;;4224964;28;20395;-61
2022/08/22 09:58:00;;;;;;;;;;;29.10;95.50;;;;;;4196361;28;19925;-61
2022/08/22 10:00:35;;;;;;;;;;;29.30;95.00;;;;;;4210613;28;19932;-60
2022/08/22 10:02:37;;;;;;;;;;;29.40;95.70;;;;;;4173950;28;20386;-61
2022/08/22 10:04:44;;;;;;;;;;;29.70;95.10;;;;;;4229358;28;19946;-60
2022/08/22 10:07:00;;;;;;;;;;;29.60;94.00;;;;;;4213055;28;19928;-61
2022/08/22 10:09:06;;;;;;;;;;;29.70;93.70;;;;;;4205593;28;19958;-61
2022/08/22 10:11:12;;;;;;;;;;;30.10;93.90;;;;;;4213013;28;19974;-61
2022/08/22 10:13:22;;;;;;;;;;;30.00;91.80;;;;;;4209220;28;19955;-61
2022/08/22 10:15:33;;;;;;;;;;;30.30;94.60;;;;;;4211773;28;19970;-61
2022/08/22 10:17:37;;;;;;;;;;;30.30;91.70;;;;;;4211113;28;20093;-60
2022/08/22 10:19:45;;;;;;;;;;;30.20;92.40;;;;;;4210396;28;19932;-60
2022/08/22 10:22:02;;;;;;;;;;;30.20;92.50;;;;;;4193862;28;20027;-61
2022/08/22 10:24:13;;;;;;;;;;;30.30;92.10;;;;;;4195475;28;19924;-61
2022/08/22 10:26:44;;;;;;;;;;;30.50;93.00;;;;;;4212942;28;20352;-61
2022/08/22 10:28:49;;;;;;;;;;;30.70;91.80;;;;;;4213040;28;19981;-61
2022/08/22 10:30:53;;;;;;;;;;;30.60;92.00;;;;;;4211936;28;19928;-62
2022/08/22 10:32:58;;;;;;;;;;;30.50;93.30;;;;;;4195791;28;19928;-61
2022/08/22 10:35:05;;;;;;;;;;;30.70;93.30;;;;;;4206289;28;19928;-62
2022/08/22 10:37:08;;;;;;;;;;;30.70;92.10;;;;;;4202067;28;19988;-61
2022/08/22 10:39:15;;;;;;;;;;;30.80;90.50;;;;;;4201179;28;19935;-61
2022/08/22 10:41:26;;;;;;;;;;;31.10;91.20;;;;;;4206192;28;20384;-61
2022/08/22 10:43:43;;;;;;;;;;;31.30;90.90;;;;;;4218081;28;19928;-61
2022/08/22 10:45:46;;;;;;;;;;;31.30;90.80;;;;;;4199691;28;19931;-61
2022/08/22 10:47:56;;;;;;;;;;;31.40;91.10;;;;;;4220685;28;20741;-61
2022/08/22 10:50:17;;;;;;;;;;;31.50;88.30;;;;;;4213681;28;19981;-61
2022/08/22 10:52:23;;;;;;;;;;;31.50;86.40;;;;;;4216835;28;19928;-61
2022/08/22 10:54:37;;;;;;;;;;;31.20;86.90;;;;;;4208362;28;20392;-61
2022/08/22 10:57:02;;;;;;;;;;;31.50;83.90;;;;;;4182754;28;20403;-61
2022/08/22 10:59:13;;;;;;;;;;;31.70;81.40;;;;;;4185976;28;19924;-61
2022/08/22 11:01:16;;;;;;;;;;;31.60;85.50;;;;;;4222676;28;20018;-61
2022/08/22 11:03:55;;;;;;;;;;;31.90;84.90;;;;;;4211966;28;20311;-61
2022/08/22 11:05:59;;;;;;;;;;;32.00;81.60;;;;;;4187306;28;19928;-61
2022/08/22 11:08:03;;;;;;;;;;;32.00;81.50;;;;;;4210379;28;19935;-62
2022/08/22 11:10:10;;;;;;;;;;;31.70;82.40;;;;;;4192146;28;20023;-61
2022/08/22 11:12:33;;;;;;;;;;;31.80;84.20;;;;;;4209473;28;20035;-62
2022/08/22 11:14:42;;;;;;;;;;;32.20;82.60;;;;;;4217194;28;19924;-62
2022/08/22 11:17:04;;;;;;;;;;;32.50;83.00;;;;;;4212237;28;19932;-61
2022/08/22 11:19:45;;;;;;;;;;;32.70;91.40;;;;;;4212644;28;19950;-61
2022/08/22 11:22:13;;;;;;;;;;;33.00;80.20;;;;;;4195013;28;20773;-62
2022/08/22 11:24:30;;;;;;;;;;;32.70;80.30;;;;;;4192327;28;19967;-61
2022/08/22 11:26:59;;;;;;;;;;;32.80;82.60;;;;;;4208571;28;19931;-61
2022/08/22 11:29:10;;;;;;;;;;;32.70;78.90;;;;;;4201007;28;20015;-62
2022/08/22 11:31:15;;;;;;;;;;;31.80;78.80;;;;;;4206988;28;19939;-62
2022/08/22 11:33:19;;;;;;;;;;;31.30;82.50;;;;;;4211713;28;20054;-62
2022/08/22 11:35:24;;;;;;;;;;;32.20;85.70;;;;;;4209004;28;20237;-62
2022/08/22 11:37:26;;;;;;;;;;;32.80;90.00;;;;;;4212382;28;19924;-62
2022/08/22 11:40:02;;;;;;;;;;;32.80;82.30;;;;;;4193322;28;19925;-60
2022/08/22 11:42:04;;;;;;;;;;;31.70;77.20;;;;;;4204425;28;19928;-61
2022/08/22 11:44:18;;;;;;;;;;;31.40;78.80;;;;;;4211854;28;19931;-61
2022/08/22 11:46:22;;;;;;;;;;;31.80;81.20;;;;;;4212036;28;19931;-61
2022/08/22 11:48:31;;;;;;;;;;;32.30;83.60;;;;;;4211376;28;20458;-62
2022/08/22 11:50:33;;;;;;;;;;;32.60;78.20;;;;;;4211803;28;19928;-62
2022/08/22 11:52:54;;;;;;;;;;;32.20;83.50;;;;;;4212091;28;19938;-62
2022/08/22 11:55:10;;;;;;;;;;;32.00;83.30;;;;;;4212084;28;19931;-61
2022/08/22 11:57:15;;;;;;;;;;;32.20;84.70;;;;;;4211869;28;19931;-62
2022/08/22 11:59:16;;;;;;;;;;;32.00;84.10;;;;;;4211776;28;20032;-61
2022/08/22 12:01:22;;;;;;;;;;;31.80;78.00;;;;;;4211863;28;19935;-61
2022/08/22 12:03:33;;;;;;;;;;;32.10;76.30;;;;;;4211599;28;20319;-61
2022/08/22 12:05:41;;;;;;;;;;;32.30;77.50;;;;;;4211799;28;20376;-61
2022/08/22 12:07:52;;;;;;;;;;;32.00;78.20;;;;;;4211559;28;20019;-61
2022/08/22 12:09:57;;;;;;;;;;;32.20;80.20;;;;;;4216757;28;19932;-61
2022/08/22 12:12:20;;;;;;;;;;;32.70;77.60;;;;;;4211425;28;19966;-61
2022/08/22 12:14:27;;;;;;;;;;;32.60;75.70;;;;;;4217194;28;19924;-61
2022/08/22 12:16:48;;;;;;;;;;;32.50;78.00;;;;;;4198528;28;19929;-61
2022/08/22 12:19:05;;;;;;;;;;;32.50;78.00;;;;;;4210909;28;19932;-63
2022/08/22 12:21:14;;;;;;;;;;;32.20;78.10;;;;;;4180474;28;19929;-61
2022/08/22 12:23:22;;;;;;;;;;;32.20;77.80;;;;;;4211616;28;19982;-62
2022/08/22 12:25:33;;;;;;;;;;;31.90;76.00;;;;;;4211433;28;19993;-61
2022/08/22 12:27:35;;;;;;;;;;;31.60;78.40;;;;;;4176952;28;20051;-61
2022/08/22 12:29:37;;;;;;;;;;;31.60;78.90;;;;;;4201864;28;19946;-61
2022/08/22 12:31:59;;;;;;;;;;;31.50;79.20;;;;;;4211852;28;19924;-61
2022/08/22 12:34:19;;;;;;;;;;;31.40;79.70;;;;;;4197515;28;19936;-61
2022/08/22 12:36:33;;;;;;;;;;;31.30;79.00;;;;;;4207866;28;19951;-61
2022/08/22 12:38:48;;;;;;;;;;;31.00;78.00;;;;;;4214224;28;19924;-62
2022/08/22 12:41:08;;;;;;;;;;;31.00;80.80;;;;;;4214556;28;19963;-61